sensor_id;sensor_type;location;lat;lon;timestamp;P1;durP1;ratioP1;P2;durP2;ratioP2
3949;SDS011;53057;50.988;6.314;2022-12-07T00:01:26;66.27;;;35.73;;
3949;SDS011;53057;50.988;6.314;2022-12-07T00:03:53;66.87;;;37.53;;
3949;SDS011;53057;50.988;6.314;2022-12-07T00:06:21;63.93;;;37.07;;
3949;SDS011;53057;50.988;6.314;2022-12-07T00:08:47;68.47;;;36.60;;
3949;SDS011;53057;50.988;6.314;2022-12-07T00:11:18;68.60;;;37.67;;
3949;SDS011;53057;50.988;6.314;2022-12-07T00:13:45;101.20;;;39.77;;
3949;SDS011;53057;50.988;6.314;2022-12-07T00:16:16;75.53;;;40.67;;
3949;SDS011;53057;50.988;6.314;2022-12-07T00:18:44;86.73;;;40.50;;
3949;SDS011;53057;50.988;6.314;2022-12-07T00:21:21;79.30;;;39.23;;
3949;SDS011;53057;50.988;6.314;2022-12-07T00:23:48;74.53;;;40.90;;
3949;SDS011;53057;50.988;6.314;2022-12-07T00:26:16;89.43;;;42.10;;
3949;SDS011;53057;50.988;6.314;2022-12-07T00:28:50;70.20;;;42.33;;
3949;SDS011;53057;50.988;6.314;2022-12-07T00:31:18;85.03;;;41.60;;
3949;SDS011;53057;50.988;6.314;2022-12-07T00:33:45;83.17;;;40.50;;
3949;SDS011;53057;50.988;6.314;2022-12-07T00:36:15;73.23;;;36.67;;
3949;SDS011;53057;50.988;6.314;2022-12-07T00:38:47;78.20;;;42.27;;
3949;SDS011;53057;50.988;6.314;2022-12-07T00:41:14;84.70;;;40.50;;
3949;SDS011;53057;50.988;6.314;2022-12-07T00:43:42;85.70;;;44.97;;
3949;SDS011;53057;50.988;6.314;2022-12-07T00:46:09;81.00;;;42.33;;
3949;SDS011;53057;50.988;6.314;2022-12-07T00:48:36;80.93;;;43.73;;
3949;SDS011;53057;50.988;6.314;2022-12-07T00:51:03;77.83;;;43.40;;
3949;SDS011;53057;50.988;6.314;2022-12-07T00:53:30;80.20;;;45.23;;
3949;SDS011;53057;50.988;6.314;2022-12-07T00:56:05;73.97;;;39.20;;
3949;SDS011;53057;50.988;6.314;2022-12-07T00:58:32;88.83;;;42.03;;
3949;SDS011;53057;50.988;6.314;2022-12-07T01:01:02;79.67;;;42.30;;
3949;SDS011;53057;50.988;6.314;2022-12-07T01:03:30;75.30;;;44.10;;
3949;SDS011;53057;50.988;6.314;2022-12-07T01:05:57;82.23;;;38.00;;
3949;SDS011;53057;50.988;6.314;2022-12-07T01:08:24;79.37;;;42.03;;
3949;SDS011;53057;50.988;6.314;2022-12-07T01:11:01;77.33;;;41.80;;
3949;SDS011;53057;50.988;6.314;2022-12-07T01:13:28;84.80;;;43.37;;
3949;SDS011;53057;50.988;6.314;2022-12-07T01:15:58;80.07;;;44.10;;
3949;SDS011;53057;50.988;6.314;2022-12-07T01:18:26;84.17;;;43.70;;
3949;SDS011;53057;50.988;6.314;2022-12-07T01:20:57;82.80;;;41.47;;
3949;SDS011;53057;50.988;6.314;2022-12-07T01:23:24;85.10;;;41.80;;
3949;SDS011;53057;50.988;6.314;2022-12-07T01:25:57;78.57;;;42.80;;
3949;SDS011;53057;50.988;6.314;2022-12-07T01:28:24;85.30;;;42.40;;
3949;SDS011;53057;50.988;6.314;2022-12-07T01:30:58;79.83;;;45.70;;
3949;SDS011;53057;50.988;6.314;2022-12-07T01:33:26;87.33;;;45.67;;
3949;SDS011;53057;50.988;6.314;2022-12-07T01:35:52;75.43;;;43.17;;
3949;SDS011;53057;50.988;6.314;2022-12-07T01:38:19;76.70;;;44.43;;
3949;SDS011;53057;50.988;6.314;2022-12-07T01:40:45;77.00;;;41.93;;
3949;SDS011;53057;50.988;6.314;2022-12-07T01:43:19;77.50;;;42.07;;
3949;SDS011;53057;50.988;6.314;2022-12-07T01:45:46;86.97;;;44.87;;
3949;SDS011;53057;50.988;6.314;2022-12-07T01:48:14;82.13;;;43.23;;
3949;SDS011;53057;50.988;6.314;2022-12-07T01:50:43;75.63;;;42.33;;
3949;SDS011;53057;50.988;6.314;2022-12-07T01:53:10;72.13;;;37.70;;
3949;SDS011;53057;50.988;6.314;2022-12-07T01:55:38;80.30;;;42.47;;
3949;SDS011;53057;50.988;6.314;2022-12-07T01:58:06;69.80;;;39.20;;
3949;SDS011;53057;50.988;6.314;2022-12-07T02:00:33;76.13;;;40.57;;
3949;SDS011;53057;50.988;6.314;2022-12-07T02:03:01;79.30;;;42.70;;
3949;SDS011;53057;50.988;6.314;2022-12-07T02:05:30;89.23;;;42.40;;
3949;SDS011;53057;50.988;6.314;2022-12-07T02:07:57;84.07;;;43.00;;
3949;SDS011;53057;50.988;6.314;2022-12-07T02:10:28;86.80;;;42.40;;
3949;SDS011;53057;50.988;6.314;2022-12-07T02:12:57;74.93;;;39.97;;
3949;SDS011;53057;50.988;6.314;2022-12-07T02:18:12;93.37;;;43.07;;
3949;SDS011;53057;50.988;6.314;2022-12-07T02:29:09;84.33;;;43.73;;
3949;SDS011;53057;50.988;6.314;2022-12-07T02:31:37;99.40;;;47.60;;
3949;SDS011;53057;50.988;6.314;2022-12-07T02:34:07;87.20;;;42.57;;
3949;SDS011;53057;50.988;6.314;2022-12-07T02:36:46;74.23;;;41.57;;
3949;SDS011;53057;50.988;6.314;2022-12-07T02:39:50;89.27;;;47.33;;
3949;SDS011;53057;50.988;6.314;2022-12-07T02:42:12;91.23;;;46.43;;
3949;SDS011;53057;50.988;6.314;2022-12-07T02:44:40;96.33;;;45.77;;
3949;SDS011;53057;50.988;6.314;2022-12-07T02:47:09;98.73;;;45.67;;
3949;SDS011;53057;50.988;6.314;2022-12-07T02:49:37;101.53;;;46.90;;
3949;SDS011;53057;50.988;6.314;2022-12-07T02:52:05;104.37;;;50.00;;
3949;SDS011;53057;50.988;6.314;2022-12-07T02:54:31;107.97;;;47.33;;
3949;SDS011;53057;50.988;6.314;2022-12-07T02:57:13;97.53;;;46.93;;
3949;SDS011;53057;50.988;6.314;2022-12-07T03:12:24;111.03;;;51.27;;
3949;SDS011;53057;50.988;6.314;2022-12-07T03:17:44;117.83;;;51.63;;
3949;SDS011;53057;50.988;6.314;2022-12-07T03:20:12;131.40;;;52.53;;
3949;SDS011;53057;50.988;6.314;2022-12-07T03:22:40;104.13;;;48.27;;
3949;SDS011;53057;50.988;6.314;2022-12-07T03:25:09;121.10;;;49.70;;
3949;SDS011;53057;50.988;6.314;2022-12-07T03:27:38;122.83;;;53.70;;
3949;SDS011;53057;50.988;6.314;2022-12-07T03:30:13;93.50;;;47.90;;
3949;SDS011;53057;50.988;6.314;2022-12-07T03:32:42;125.17;;;53.83;;
3949;SDS011;53057;50.988;6.314;2022-12-07T03:37:38;98.30;;;48.10;;
3949;SDS011;53057;50.988;6.314;2022-12-07T03:42:37;103.23;;;49.17;;
3949;SDS011;53057;50.988;6.314;2022-12-07T03:54:21;102.10;;;49.30;;
3949;SDS011;53057;50.988;6.314;2022-12-07T03:56:51;116.33;;;53.90;;
3949;SDS011;53057;50.988;6.314;2022-12-07T03:59:18;130.40;;;53.13;;
3949;SDS011;53057;50.988;6.314;2022-12-07T04:01:51;113.23;;;53.73;;
3949;SDS011;53057;50.988;6.314;2022-12-07T04:04:18;129.43;;;53.53;;
3949;SDS011;53057;50.988;6.314;2022-12-07T04:06:45;114.70;;;52.77;;
3949;SDS011;53057;50.988;6.314;2022-12-07T04:09:11;121.60;;;54.67;;
3949;SDS011;53057;50.988;6.314;2022-12-07T04:11:40;127.63;;;58.30;;
3949;SDS011;53057;50.988;6.314;2022-12-07T04:14:07;117.17;;;57.77;;
3949;SDS011;53057;50.988;6.314;2022-12-07T04:16:47;129.00;;;61.83;;
3949;SDS011;53057;50.988;6.314;2022-12-07T04:19:14;129.83;;;60.40;;
3949;SDS011;53057;50.988;6.314;2022-12-07T04:21:41;133.73;;;59.07;;
3949;SDS011;53057;50.988;6.314;2022-12-07T04:24:08;130.30;;;56.97;;
3949;SDS011;53057;50.988;6.314;2022-12-07T04:26:34;137.33;;;61.03;;
3949;SDS011;53057;50.988;6.314;2022-12-07T04:29:01;142.03;;;61.47;;
3949;SDS011;53057;50.988;6.314;2022-12-07T04:31:33;156.57;;;64.03;;
3949;SDS011;53057;50.988;6.314;2022-12-07T04:33:59;145.20;;;61.33;;
3949;SDS011;53057;50.988;6.314;2022-12-07T04:36:26;153.03;;;64.60;;
3949;SDS011;53057;50.988;6.314;2022-12-07T04:38:53;150.43;;;68.87;;
3949;SDS011;53057;50.988;6.314;2022-12-07T04:41:21;163.57;;;62.03;;
3949;SDS011;53057;50.988;6.314;2022-12-07T04:43:57;161.50;;;64.27;;
3949;SDS011;53057;50.988;6.314;2022-12-07T04:46:24;166.30;;;64.83;;
3949;SDS011;53057;50.988;6.314;2022-12-07T04:48:51;157.33;;;63.67;;
3949;SDS011;53057;50.988;6.314;2022-12-07T04:54:10;177.43;;;67.37;;
3949;SDS011;53057;50.988;6.314;2022-12-07T04:56:36;159.53;;;63.93;;
3949;SDS011;53057;50.988;6.314;2022-12-07T04:59:03;155.70;;;62.00;;
3949;SDS011;53057;50.988;6.314;2022-12-07T05:01:30;168.27;;;62.70;;
3949;SDS011;53057;50.988;6.314;2022-12-07T05:03:57;168.23;;;64.33;;
3949;SDS011;53057;50.988;6.314;2022-12-07T05:06:24;154.87;;;61.63;;
3949;SDS011;53057;50.988;6.314;2022-12-07T05:08:50;150.90;;;61.47;;
3949;SDS011;53057;50.988;6.314;2022-12-07T05:11:17;180.93;;;65.07;;
3949;SDS011;53057;50.988;6.314;2022-12-07T05:14:03;161.83;;;61.10;;
3949;SDS011;53057;50.988;6.314;2022-12-07T05:16:29;149.33;;;60.37;;
3949;SDS011;53057;50.988;6.314;2022-12-07T05:18:56;156.30;;;58.93;;
3949;SDS011;53057;50.988;6.314;2022-12-07T05:21:23;141.57;;;56.60;;
3949;SDS011;53057;50.988;6.314;2022-12-07T05:23:49;146.60;;;66.17;;
3949;SDS011;53057;50.988;6.314;2022-12-07T05:26:16;151.83;;;59.30;;
3949;SDS011;53057;50.988;6.314;2022-12-07T05:28:43;147.47;;;59.77;;
3949;SDS011;53057;50.988;6.314;2022-12-07T05:31:10;146.53;;;58.50;;
3949;SDS011;53057;50.988;6.314;2022-12-07T05:33:37;155.30;;;65.40;;
3949;SDS011;53057;50.988;6.314;2022-12-07T05:36:03;157.10;;;60.03;;
3949;SDS011;53057;50.988;6.314;2022-12-07T05:38:32;153.97;;;66.83;;
3949;SDS011;53057;50.988;6.314;2022-12-07T05:41:03;139.00;;;63.77;;
3949;SDS011;53057;50.988;6.314;2022-12-07T05:43:29;135.47;;;55.93;;
3949;SDS011;53057;50.988;6.314;2022-12-07T05:45:56;159.57;;;64.00;;
3949;SDS011;53057;50.988;6.314;2022-12-07T05:48:23;164.47;;;67.27;;
3949;SDS011;53057;50.988;6.314;2022-12-07T05:50:50;129.00;;;59.23;;
3949;SDS011;53057;50.988;6.314;2022-12-07T05:53:16;122.30;;;54.50;;
3949;SDS011;53057;50.988;6.314;2022-12-07T05:55:48;134.33;;;54.60;;
3949;SDS011;53057;50.988;6.314;2022-12-07T05:58:15;140.10;;;53.50;;
3949;SDS011;53057;50.988;6.314;2022-12-07T06:01:00;120.30;;;52.00;;
3949;SDS011;53057;50.988;6.314;2022-12-07T06:03:27;110.13;;;51.43;;
3949;SDS011;53057;50.988;6.314;2022-12-07T06:05:54;140.87;;;57.30;;
3949;SDS011;53057;50.988;6.314;2022-12-07T06:08:21;108.23;;;48.77;;
3949;SDS011;53057;50.988;6.314;2022-12-07T06:10:47;113.10;;;50.30;;
3949;SDS011;53057;50.988;6.314;2022-12-07T06:13:34;121.23;;;48.43;;
3949;SDS011;53057;50.988;6.314;2022-12-07T06:16:00;102.77;;;49.10;;
3949;SDS011;53057;50.988;6.314;2022-12-07T06:18:27;112.87;;;49.93;;
3949;SDS011;53057;50.988;6.314;2022-12-07T06:20:53;100.87;;;47.60;;
3949;SDS011;53057;50.988;6.314;2022-12-07T06:23:20;110.17;;;50.90;;
3949;SDS011;53057;50.988;6.314;2022-12-07T06:25:47;108.00;;;46.10;;
3949;SDS011;53057;50.988;6.314;2022-12-07T06:28:13;84.40;;;43.40;;
3949;SDS011;53057;50.988;6.314;2022-12-07T06:30:40;101.23;;;48.20;;
3949;SDS011;53057;50.988;6.314;2022-12-07T06:33:07;104.50;;;47.10;;
3949;SDS011;53057;50.988;6.314;2022-12-07T06:35:33;108.87;;;44.93;;
3949;SDS011;53057;50.988;6.314;2022-12-07T06:38:00;82.47;;;42.17;;
3949;SDS011;53057;50.988;6.314;2022-12-07T06:40:26;97.17;;;46.37;;
3949;SDS011;53057;50.988;6.314;2022-12-07T06:42:53;99.13;;;46.80;;
3949;SDS011;53057;50.988;6.314;2022-12-07T06:45:20;128.30;;;51.40;;
3949;SDS011;53057;50.988;6.314;2022-12-07T06:47:46;101.90;;;49.00;;
3949;SDS011;53057;50.988;6.314;2022-12-07T06:50:13;121.90;;;51.17;;
3949;SDS011;53057;50.988;6.314;2022-12-07T06:52:40;113.90;;;48.20;;
3949;SDS011;53057;50.988;6.314;2022-12-07T06:55:06;134.60;;;51.40;;
3949;SDS011;53057;50.988;6.314;2022-12-07T06:57:33;116.60;;;48.87;;
3949;SDS011;53057;50.988;6.314;2022-12-07T07:00:00;143.70;;;58.50;;
3949;SDS011;53057;50.988;6.314;2022-12-07T07:02:27;145.20;;;69.10;;
3949;SDS011;53057;50.988;6.314;2022-12-07T07:04:54;108.47;;;50.77;;
3949;SDS011;53057;50.988;6.314;2022-12-07T07:07:21;118.80;;;50.80;;
3949;SDS011;53057;50.988;6.314;2022-12-07T07:09:47;120.97;;;52.07;;
3949;SDS011;53057;50.988;6.314;2022-12-07T07:12:14;107.03;;;49.77;;
3949;SDS011;53057;50.988;6.314;2022-12-07T07:14:41;112.07;;;46.80;;
3949;SDS011;53057;50.988;6.314;2022-12-07T07:17:08;133.73;;;51.90;;
3949;SDS011;53057;50.988;6.314;2022-12-07T07:19:35;112.43;;;47.93;;
3949;SDS011;53057;50.988;6.314;2022-12-07T07:22:01;120.93;;;51.80;;
3949;SDS011;53057;50.988;6.314;2022-12-07T07:24:28;105.60;;;48.50;;
3949;SDS011;53057;50.988;6.314;2022-12-07T07:26:54;126.47;;;51.63;;
3949;SDS011;53057;50.988;6.314;2022-12-07T07:29:21;126.23;;;52.33;;
3949;SDS011;53057;50.988;6.314;2022-12-07T07:31:47;132.30;;;52.63;;
3949;SDS011;53057;50.988;6.314;2022-12-07T07:34:14;116.17;;;51.57;;
3949;SDS011;53057;50.988;6.314;2022-12-07T07:36:41;120.00;;;51.97;;
3949;SDS011;53057;50.988;6.314;2022-12-07T07:39:09;140.57;;;54.80;;
3949;SDS011;53057;50.988;6.314;2022-12-07T07:41:35;125.50;;;53.40;;
3949;SDS011;53057;50.988;6.314;2022-12-07T07:44:02;144.33;;;54.80;;
3949;SDS011;53057;50.988;6.314;2022-12-07T07:46:29;126.23;;;51.63;;
3949;SDS011;53057;50.988;6.314;2022-12-07T07:48:55;133.87;;;53.30;;
3949;SDS011;53057;50.988;6.314;2022-12-07T07:51:22;117.67;;;50.87;;
3949;SDS011;53057;50.988;6.314;2022-12-07T07:53:48;131.67;;;52.87;;
3949;SDS011;53057;50.988;6.314;2022-12-07T07:56:15;128.87;;;52.33;;
3949;SDS011;53057;50.988;6.314;2022-12-07T07:58:42;128.67;;;52.90;;
3949;SDS011;53057;50.988;6.314;2022-12-07T08:01:08;137.87;;;54.77;;
3949;SDS011;53057;50.988;6.314;2022-12-07T08:03:35;129.83;;;51.30;;
3949;SDS011;53057;50.988;6.314;2022-12-07T08:06:02;102.67;;;46.03;;
3949;SDS011;53057;50.988;6.314;2022-12-07T08:08:29;107.77;;;48.83;;
3949;SDS011;53057;50.988;6.314;2022-12-07T08:10:56;116.77;;;49.63;;
3949;SDS011;53057;50.988;6.314;2022-12-07T08:13:26;123.70;;;50.83;;
3949;SDS011;53057;50.988;6.314;2022-12-07T08:15:57;134.03;;;50.10;;
3949;SDS011;53057;50.988;6.314;2022-12-07T08:18:23;128.03;;;50.47;;
3949;SDS011;53057;50.988;6.314;2022-12-07T08:20:50;123.37;;;49.10;;
3949;SDS011;53057;50.988;6.314;2022-12-07T08:23:17;137.33;;;51.40;;
3949;SDS011;53057;50.988;6.314;2022-12-07T08:25:43;160.33;;;54.83;;
3949;SDS011;53057;50.988;6.314;2022-12-07T08:28:10;136.63;;;52.80;;
3949;SDS011;53057;50.988;6.314;2022-12-07T08:30:36;148.10;;;57.00;;
3949;SDS011;53057;50.988;6.314;2022-12-07T08:33:03;152.37;;;59.70;;
3949;SDS011;53057;50.988;6.314;2022-12-07T08:35:32;147.20;;;58.37;;
3949;SDS011;53057;50.988;6.314;2022-12-07T08:37:58;156.20;;;56.60;;
3949;SDS011;53057;50.988;6.314;2022-12-07T08:40:25;140.43;;;57.57;;
3949;SDS011;53057;50.988;6.314;2022-12-07T08:42:52;138.17;;;55.00;;
3949;SDS011;53057;50.988;6.314;2022-12-07T08:45:19;117.40;;;54.73;;
3949;SDS011;53057;50.988;6.314;2022-12-07T08:48:00;123.67;;;51.20;;
3949;SDS011;53057;50.988;6.314;2022-12-07T08:50:28;105.60;;;49.37;;
3949;SDS011;53057;50.988;6.314;2022-12-07T08:52:56;100.40;;;47.30;;
3949;SDS011;53057;50.988;6.314;2022-12-07T08:55:23;95.30;;;46.50;;
3949;SDS011;53057;50.988;6.314;2022-12-07T08:57:50;84.13;;;45.10;;
3949;SDS011;53057;50.988;6.314;2022-12-07T09:00:17;90.17;;;44.73;;
3949;SDS011;53057;50.988;6.314;2022-12-07T09:02:44;72.37;;;38.70;;
3949;SDS011;53057;50.988;6.314;2022-12-07T09:05:11;67.97;;;38.87;;
3949;SDS011;53057;50.988;6.314;2022-12-07T09:07:46;62.30;;;33.70;;
3949;SDS011;53057;50.988;6.314;2022-12-07T09:10:17;63.90;;;36.93;;
3949;SDS011;53057;50.988;6.314;2022-12-07T09:12:44;70.43;;;32.90;;
3949;SDS011;53057;50.988;6.314;2022-12-07T09:15:10;59.80;;;34.13;;
3949;SDS011;53057;50.988;6.314;2022-12-07T09:17:37;61.93;;;30.63;;
3949;SDS011;53057;50.988;6.314;2022-12-07T09:20:04;61.30;;;32.37;;
3949;SDS011;53057;50.988;6.314;2022-12-07T09:22:32;60.67;;;31.50;;
3949;SDS011;53057;50.988;6.314;2022-12-07T09:24:59;52.90;;;29.73;;
3949;SDS011;53057;50.988;6.314;2022-12-07T09:27:26;61.73;;;31.40;;
3949;SDS011;53057;50.988;6.314;2022-12-07T09:29:53;58.83;;;28.87;;
3949;SDS011;53057;50.988;6.314;2022-12-07T09:32:19;48.10;;;28.00;;
3949;SDS011;53057;50.988;6.314;2022-12-07T09:34:46;53.33;;;26.03;;
3949;SDS011;53057;50.988;6.314;2022-12-07T09:37:13;48.63;;;25.20;;
3949;SDS011;53057;50.988;6.314;2022-12-07T09:39:40;49.37;;;26.20;;
3949;SDS011;53057;50.988;6.314;2022-12-07T09:45:01;51.30;;;27.77;;
3949;SDS011;53057;50.988;6.314;2022-12-07T09:47:28;49.07;;;27.70;;
3949;SDS011;53057;50.988;6.314;2022-12-07T09:49:57;51.93;;;29.63;;
3949;SDS011;53057;50.988;6.314;2022-12-07T09:52:27;49.27;;;28.40;;
3949;SDS011;53057;50.988;6.314;2022-12-07T09:55:02;40.63;;;26.50;;
3949;SDS011;53057;50.988;6.314;2022-12-07T09:57:31;48.17;;;27.87;;
3949;SDS011;53057;50.988;6.314;2022-12-07T09:59:59;52.50;;;28.57;;
3949;SDS011;53057;50.988;6.314;2022-12-07T10:02:35;46.90;;;27.40;;
3949;SDS011;53057;50.988;6.314;2022-12-07T10:05:03;49.70;;;25.80;;
3949;SDS011;53057;50.988;6.314;2022-12-07T10:07:31;59.23;;;29.30;;
3949;SDS011;53057;50.988;6.314;2022-12-07T10:09:57;40.37;;;23.20;;
3949;SDS011;53057;50.988;6.314;2022-12-07T10:12:24;54.33;;;28.13;;
3949;SDS011;53057;50.988;6.314;2022-12-07T10:14:55;54.17;;;28.70;;
3949;SDS011;53057;50.988;6.314;2022-12-07T10:17:38;61.00;;;30.40;;
3949;SDS011;53057;50.988;6.314;2022-12-07T10:20:15;61.10;;;30.90;;
3949;SDS011;53057;50.988;6.314;2022-12-07T10:22:55;57.13;;;30.90;;
3949;SDS011;53057;50.988;6.314;2022-12-07T10:25:23;68.57;;;32.03;;
3949;SDS011;53057;50.988;6.314;2022-12-07T10:33:29;57.83;;;32.77;;
3949;SDS011;53057;50.988;6.314;2022-12-07T10:35:56;69.27;;;33.80;;
3949;SDS011;53057;50.988;6.314;2022-12-07T10:38:24;68.20;;;35.50;;
3949;SDS011;53057;50.988;6.314;2022-12-07T10:41:07;62.90;;;35.70;;
3949;SDS011;53057;50.988;6.314;2022-12-07T10:43:34;67.33;;;34.13;;
3949;SDS011;53057;50.988;6.314;2022-12-07T10:49:09;73.80;;;32.00;;
3949;SDS011;53057;50.988;6.314;2022-12-07T10:51:47;50.33;;;28.80;;
3949;SDS011;53057;50.988;6.314;2022-12-07T11:07:02;46.50;;;27.00;;
3949;SDS011;53057;50.988;6.314;2022-12-07T11:17:43;43.97;;;26.90;;
3949;SDS011;53057;50.988;6.314;2022-12-07T11:25:31;44.13;;;24.90;;
3949;SDS011;53057;50.988;6.314;2022-12-07T11:33:27;38.10;;;22.20;;
3949;SDS011;53057;50.988;6.314;2022-12-07T11:36:09;41.97;;;22.20;;
3949;SDS011;53057;50.988;6.314;2022-12-07T11:38:55;35.97;;;21.63;;
3949;SDS011;53057;50.988;6.314;2022-12-07T11:41:24;42.53;;;24.97;;
3949;SDS011;53057;50.988;6.314;2022-12-07T11:43:59;42.37;;;24.47;;
3949;SDS011;53057;50.988;6.314;2022-12-07T11:46:35;42.13;;;25.33;;
3949;SDS011;53057;50.988;6.314;2022-12-07T11:49:13;44.80;;;24.00;;
3949;SDS011;53057;50.988;6.314;2022-12-07T11:51:41;50.80;;;25.03;;
3949;SDS011;53057;50.988;6.314;2022-12-07T11:54:14;44.53;;;24.80;;
3949;SDS011;53057;50.988;6.314;2022-12-07T11:56:42;50.27;;;24.47;;
3949;SDS011;53057;50.988;6.314;2022-12-07T11:59:16;39.40;;;24.13;;
3949;SDS011;53057;50.988;6.314;2022-12-07T12:01:57;40.50;;;22.53;;
3949;SDS011;53057;50.988;6.314;2022-12-07T12:04:29;56.20;;;29.70;;
3949;SDS011;53057;50.988;6.314;2022-12-07T12:06:57;51.07;;;27.30;;
3949;SDS011;53057;50.988;6.314;2022-12-07T12:09:48;52.97;;;28.30;;
3949;SDS011;53057;50.988;6.314;2022-12-07T12:15:38;38.37;;;24.57;;
3949;SDS011;53057;50.988;6.314;2022-12-07T12:18:32;40.87;;;24.77;;
3949;SDS011;53057;50.988;6.314;2022-12-07T12:21:14;37.93;;;22.83;;
3949;SDS011;53057;50.988;6.314;2022-12-07T12:23:48;37.10;;;23.63;;
3949;SDS011;53057;50.988;6.314;2022-12-07T12:28:54;40.50;;;26.67;;
3949;SDS011;53057;50.988;6.314;2022-12-07T12:33:50;34.80;;;22.17;;
3949;SDS011;53057;50.988;6.314;2022-12-07T12:46:56;36.20;;;17.90;;
3949;SDS011;53057;50.988;6.314;2022-12-07T12:51:53;26.20;;;17.13;;
3949;SDS011;53057;50.988;6.314;2022-12-07T12:54:27;26.93;;;15.93;;
3949;SDS011;53057;50.988;6.314;2022-12-07T13:04:34;28.10;;;17.30;;
3949;SDS011;53057;50.988;6.314;2022-12-07T13:07:08;24.33;;;15.80;;
3949;SDS011;53057;50.988;6.314;2022-12-07T13:09:35;26.90;;;17.60;;
3949;SDS011;53057;50.988;6.314;2022-12-07T13:12:04;26.73;;;16.17;;
3949;SDS011;53057;50.988;6.314;2022-12-07T13:17:08;39.93;;;17.20;;
3949;SDS011;53057;50.988;6.314;2022-12-07T13:25:35;34.33;;;18.93;;
3949;SDS011;53057;50.988;6.314;2022-12-07T13:27:48;29.93;;;17.53;;
3949;SDS011;53057;50.988;6.314;2022-12-07T13:30:19;34.43;;;20.70;;
3949;SDS011;53057;50.988;6.314;2022-12-07T13:32:51;44.97;;;21.60;;
3949;SDS011;53057;50.988;6.314;2022-12-07T13:35:32;41.10;;;19.40;;
3949;SDS011;53057;50.988;6.314;2022-12-07T13:49:24;22.90;;;16.37;;
3949;SDS011;53057;50.988;6.314;2022-12-07T13:51:51;23.13;;;13.57;;
3949;SDS011;53057;50.988;6.314;2022-12-07T13:54:18;28.43;;;15.30;;
3949;SDS011;53057;50.988;6.314;2022-12-07T13:56:49;30.17;;;16.07;;
3949;SDS011;53057;50.988;6.314;2022-12-07T13:59:18;36.67;;;13.93;;
3949;SDS011;53057;50.988;6.314;2022-12-07T14:01:46;21.60;;;13.50;;
3949;SDS011;53057;50.988;6.314;2022-12-07T14:04:28;24.67;;;14.90;;
3949;SDS011;53057;50.988;6.314;2022-12-07T14:06:56;35.37;;;15.67;;
3949;SDS011;53057;50.988;6.314;2022-12-07T14:09:23;22.03;;;14.47;;
3949;SDS011;53057;50.988;6.314;2022-12-07T14:11:51;22.77;;;15.23;;
3949;SDS011;53057;50.988;6.314;2022-12-07T14:14:21;29.40;;;15.10;;
3949;SDS011;53057;50.988;6.314;2022-12-07T14:16:58;23.80;;;14.30;;
3949;SDS011;53057;50.988;6.314;2022-12-07T14:22:22;20.93;;;14.27;;
3949;SDS011;53057;50.988;6.314;2022-12-07T14:24:49;38.50;;;18.30;;
3949;SDS011;53057;50.988;6.314;2022-12-07T14:27:20;29.83;;;15.60;;
3949;SDS011;53057;50.988;6.314;2022-12-07T14:29:47;16.70;;;14.50;;
3949;SDS011;53057;50.988;6.314;2022-12-07T14:32:24;21.13;;;16.00;;
3949;SDS011;53057;50.988;6.314;2022-12-07T14:35:08;25.53;;;18.20;;
3949;SDS011;53057;50.988;6.314;2022-12-07T14:37:37;26.23;;;17.30;;
3949;SDS011;53057;50.988;6.314;2022-12-07T14:40:04;28.57;;;17.83;;
3949;SDS011;53057;50.988;6.314;2022-12-07T14:42:31;40.97;;;19.30;;
3949;SDS011;53057;50.988;6.314;2022-12-07T14:44:58;31.53;;;20.13;;
3949;SDS011;53057;50.988;6.314;2022-12-07T14:47:25;30.30;;;17.20;;
3949;SDS011;53057;50.988;6.314;2022-12-07T14:50:17;42.63;;;21.07;;
3949;SDS011;53057;50.988;6.314;2022-12-07T14:52:45;32.70;;;21.10;;
3949;SDS011;53057;50.988;6.314;2022-12-07T14:55:32;61.10;;;30.10;;
3949;SDS011;53057;50.988;6.314;2022-12-07T14:57:59;15.80;;;9.20;;
3949;SDS011;53057;50.988;6.314;2022-12-07T15:00:26;13.20;;;6.90;;
3949;SDS011;53057;50.988;6.314;2022-12-07T15:02:56;18.83;;;7.77;;
3949;SDS011;53057;50.988;6.314;2022-12-07T15:05:23;17.73;;;10.83;;
3949;SDS011;53057;50.988;6.314;2022-12-07T15:07:50;15.83;;;13.83;;
3949;SDS011;53057;50.988;6.314;2022-12-07T15:10:19;20.77;;;16.97;;
3949;SDS011;53057;50.988;6.314;2022-12-07T15:12:50;18.70;;;12.30;;
3949;SDS011;53057;50.988;6.314;2022-12-07T15:15:17;28.73;;;19.20;;
3949;SDS011;53057;50.988;6.314;2022-12-07T15:17:43;21.37;;;14.37;;
3949;SDS011;53057;50.988;6.314;2022-12-07T15:20:11;39.53;;;26.20;;
3949;SDS011;53057;50.988;6.314;2022-12-07T15:22:38;38.07;;;26.33;;
3949;SDS011;53057;50.988;6.314;2022-12-07T15:25:05;40.67;;;31.10;;
3949;SDS011;53057;50.988;6.314;2022-12-07T15:27:32;68.07;;;39.00;;
3949;SDS011;53057;50.988;6.314;2022-12-07T15:29:59;68.40;;;40.70;;
3949;SDS011;53057;50.988;6.314;2022-12-07T15:32:26;42.97;;;26.43;;
3949;SDS011;53057;50.988;6.314;2022-12-07T15:34:53;30.13;;;20.70;;
3949;SDS011;53057;50.988;6.314;2022-12-07T15:37:19;38.00;;;18.50;;
3949;SDS011;53057;50.988;6.314;2022-12-07T15:39:46;30.20;;;20.47;;
3949;SDS011;53057;50.988;6.314;2022-12-07T15:42:12;45.10;;;21.97;;
3949;SDS011;53057;50.988;6.314;2022-12-07T15:44:39;43.07;;;22.30;;
3949;SDS011;53057;50.988;6.314;2022-12-07T15:47:24;37.13;;;18.63;;
3949;SDS011;53057;50.988;6.314;2022-12-07T15:49:51;45.50;;;19.47;;
3949;SDS011;53057;50.988;6.314;2022-12-07T15:52:18;32.03;;;18.73;;
3949;SDS011;53057;50.988;6.314;2022-12-07T15:54:45;32.23;;;18.20;;
3949;SDS011;53057;50.988;6.314;2022-12-07T15:57:13;54.20;;;23.17;;
3949;SDS011;53057;50.988;6.314;2022-12-07T15:59:40;35.67;;;22.87;;
3949;SDS011;53057;50.988;6.314;2022-12-07T16:02:07;43.40;;;23.70;;
3949;SDS011;53057;50.988;6.314;2022-12-07T16:04:34;48.03;;;24.37;;
3949;SDS011;53057;50.988;6.314;2022-12-07T16:07:01;38.57;;;22.17;;
3949;SDS011;53057;50.988;6.314;2022-12-07T16:09:27;38.93;;;23.70;;
3949;SDS011;53057;50.988;6.314;2022-12-07T16:11:54;50.20;;;24.70;;
3949;SDS011;53057;50.988;6.314;2022-12-07T16:14:21;42.33;;;24.50;;
3949;SDS011;53057;50.988;6.314;2022-12-07T16:16:48;47.90;;;29.10;;
3949;SDS011;53057;50.988;6.314;2022-12-07T16:19:14;47.90;;;26.90;;
3949;SDS011;53057;50.988;6.314;2022-12-07T16:21:41;58.37;;;28.60;;
3949;SDS011;53057;50.988;6.314;2022-12-07T16:24:08;57.07;;;29.43;;
3949;SDS011;53057;50.988;6.314;2022-12-07T16:26:36;60.23;;;32.80;;
3949;SDS011;53057;50.988;6.314;2022-12-07T16:29:03;52.23;;;29.00;;
3949;SDS011;53057;50.988;6.314;2022-12-07T16:31:29;55.00;;;25.83;;
3949;SDS011;53057;50.988;6.314;2022-12-07T16:33:57;46.30;;;24.17;;
3949;SDS011;53057;50.988;6.314;2022-12-07T16:36:24;40.83;;;25.87;;
3949;SDS011;53057;50.988;6.314;2022-12-07T16:39:12;28.53;;;21.10;;
3949;SDS011;53057;50.988;6.314;2022-12-07T16:41:39;49.40;;;21.30;;
3949;SDS011;53057;50.988;6.314;2022-12-07T16:44:07;40.53;;;21.70;;
3949;SDS011;53057;50.988;6.314;2022-12-07T16:46:36;57.23;;;28.50;;
3949;SDS011;53057;50.988;6.314;2022-12-07T16:49:03;46.57;;;24.43;;
3949;SDS011;53057;50.988;6.314;2022-12-07T16:51:30;38.47;;;23.67;;
3949;SDS011;53057;50.988;6.314;2022-12-07T16:53:56;40.00;;;23.30;;
3949;SDS011;53057;50.988;6.314;2022-12-07T16:56:23;48.20;;;24.43;;
3949;SDS011;53057;50.988;6.314;2022-12-07T16:58:51;40.80;;;22.17;;
3949;SDS011;53057;50.988;6.314;2022-12-07T17:01:18;38.50;;;20.53;;